createdAt,value
2023-05-16T00:00:42.245Z,4.90
2023-05-16T00:03:11.620Z,3.70
2023-05-16T00:05:38.682Z,4.10
2023-05-16T00:08:05.825Z,4.00
2023-05-16T00:10:32.792Z,3.40
2023-05-16T00:13:01.304Z,3.70
2023-05-16T00:17:59.213Z,4.30
2023-05-16T00:20:27.578Z,3.60
2023-05-16T00:22:54.860Z,4.10
2023-05-16T00:25:22.244Z,4.00
2023-05-16T00:27:49.032Z,4.10
2023-05-16T00:30:16.305Z,4.40
2023-05-16T00:35:11.870Z,3.90
2023-05-16T00:37:38.995Z,4.10
2023-05-16T00:40:06.969Z,3.70
2023-05-16T00:42:34.008Z,4.30
2023-05-16T00:45:00.763Z,4.10
2023-05-16T00:47:29.219Z,3.70
2023-05-16T00:49:56.486Z,4.20
2023-05-16T00:52:24.169Z,3.80
2023-05-16T00:54:51.650Z,3.70
2023-05-16T00:57:18.921Z,4.60
2023-05-16T00:59:46.571Z,4.10
2023-05-16T01:02:13.811Z,3.70
2023-05-16T01:04:41.371Z,3.40
2023-05-16T01:07:08.728Z,3.60
2023-05-16T01:09:35.563Z,4.10
2023-05-16T01:12:25.447Z,3.80
2023-05-16T01:14:59.353Z,4.80
2023-05-16T01:17:47.165Z,4.40
2023-05-16T01:20:32.638Z,3.60
2023-05-16T01:23:19.294Z,4.60
2023-05-16T01:25:53.256Z,3.80
2023-05-16T01:28:20.255Z,3.70
2023-05-16T01:30:47.205Z,4.30
2023-05-16T01:33:14.013Z,4.50
2023-05-16T01:35:46.751Z,4.20
2023-05-16T01:38:23.317Z,3.80
2023-05-16T01:41:21.028Z,3.50
2023-05-16T01:43:50.816Z,4.10
2023-05-16T01:46:29.925Z,4.20
2023-05-16T01:49:16.536Z,4.20
2023-05-16T01:51:51.200Z,4.60
2023-05-16T01:54:18.673Z,3.70
2023-05-16T01:56:52.003Z,4.40
2023-05-16T01:59:20.506Z,4.20
2023-05-16T02:01:47.631Z,4.60
2023-05-16T02:04:15.299Z,4.60
2023-05-16T02:06:42.317Z,4.40
2023-05-16T02:09:09.462Z,4.10
2023-05-16T02:11:39.824Z,4.60
2023-05-16T02:14:07.230Z,4.50
2023-05-16T02:16:34.098Z,4.60
2023-05-16T02:19:01.131Z,4.30
2023-05-16T02:21:28.047Z,4.50
2023-05-16T02:23:54.959Z,4.00
2023-05-16T02:26:22.148Z,6.20
2023-05-16T02:28:49.433Z,4.70
2023-05-16T02:31:32.867Z,4.60
2023-05-16T02:33:59.878Z,5.60
2023-05-16T02:36:27.217Z,4.80
2023-05-16T02:38:54.173Z,4.40
2023-05-16T02:43:49.600Z,4.00
2023-05-16T02:46:24.544Z,4.70
2023-05-16T02:48:51.526Z,4.60
2023-05-16T02:51:20.218Z,4.70
2023-05-16T02:56:14.420Z,3.90
2023-05-16T02:58:41.453Z,5.50
2023-05-16T03:01:08.724Z,4.80
2023-05-16T03:03:38.349Z,4.80
2023-05-16T03:06:05.649Z,4.50
2023-05-16T03:08:33.539Z,4.50
2023-05-16T03:11:00.681Z,4.30
2023-05-16T03:13:29.543Z,4.70
2023-05-16T03:15:58.976Z,4.60
2023-05-16T03:18:25.803Z,5.70
2023-05-16T03:20:52.544Z,4.90
2023-05-16T03:23:20.472Z,3.80
2023-05-16T03:25:47.457Z,4.60
2023-05-16T03:28:16.056Z,3.90
2023-05-16T03:33:09.527Z,4.30
2023-05-16T03:35:37.247Z,4.50
2023-05-16T03:38:04.039Z,3.90
2023-05-16T03:40:30.913Z,5.00
2023-05-16T03:42:59.197Z,3.90
2023-05-16T03:45:26.192Z,5.90
2023-05-16T03:47:53.389Z,5.10
2023-05-16T03:50:20.201Z,4.90
2023-05-16T03:52:47.002Z,5.10
2023-05-16T03:55:14.601Z,5.10
2023-05-16T03:57:41.978Z,5.10
2023-05-16T04:00:10.560Z,4.80
2023-05-16T04:02:40.613Z,5.60
2023-05-16T04:05:08.814Z,5.70
2023-05-16T04:07:36.687Z,5.10
2023-05-16T04:10:04.077Z,5.90
2023-05-16T04:12:31.921Z,4.90
2023-05-16T04:14:59.230Z,4.90
2023-05-16T04:17:25.985Z,5.00
2023-05-16T04:19:52.728Z,6.00
2023-05-16T04:22:27.063Z,5.60
2023-05-16T04:24:53.862Z,4.80
2023-05-16T04:27:20.826Z,5.00
2023-05-16T04:29:47.638Z,5.70
2023-05-16T04:32:14.731Z,5.70
2023-05-16T04:34:44.641Z,5.20
2023-05-16T04:37:11.591Z,5.80
2023-05-16T04:39:38.534Z,5.50
2023-05-16T04:42:05.526Z,5.70
2023-05-16T04:44:32.212Z,6.70
2023-05-16T04:46:59.113Z,7.00
2023-05-16T04:49:26.012Z,6.10
2023-05-16T04:51:52.721Z,6.50
2023-05-16T04:54:19.439Z,8.60
2023-05-16T04:56:46.190Z,8.90
2023-05-16T04:59:12.932Z,8.30
2023-05-16T05:01:40.547Z,7.00
2023-05-16T05:04:07.334Z,6.30
2023-05-16T05:06:34.990Z,6.10
2023-05-16T05:09:01.817Z,5.50
2023-05-16T05:11:28.713Z,5.90
2023-05-16T05:13:56.079Z,5.70
2023-05-16T05:16:24.490Z,5.20
2023-05-16T05:18:51.321Z,5.50
2023-05-16T05:21:19.747Z,4.90
2023-05-16T05:23:48.647Z,6.70
2023-05-16T05:26:15.649Z,6.30
2023-05-16T05:28:47.792Z,7.40
2023-05-16T05:31:18.386Z,5.90
2023-05-16T05:33:45.881Z,6.70
2023-05-16T05:36:12.739Z,5.90
2023-05-16T05:38:39.661Z,4.60
2023-05-16T05:41:06.904Z,5.70
2023-05-16T05:43:36.372Z,6.60
2023-05-16T05:46:03.110Z,5.80
2023-05-16T05:48:31.870Z,5.70
2023-05-16T05:50:58.886Z,6.30
2023-05-16T05:53:25.645Z,5.30
2023-05-16T05:55:52.481Z,4.80
2023-05-16T05:58:20.981Z,5.50
2023-05-16T06:00:47.735Z,6.10
2023-05-16T06:03:14.806Z,6.10
2023-05-16T06:05:41.928Z,6.50
2023-05-16T06:08:08.745Z,5.40
2023-05-16T06:10:36.430Z,5.20
2023-05-16T06:13:03.231Z,4.60
2023-05-16T06:15:30.188Z,5.20
2023-05-16T06:17:57.578Z,5.50
2023-05-16T06:20:24.605Z,5.40
2023-05-16T06:22:51.503Z,5.60
2023-05-16T06:25:19.311Z,5.40
2023-05-16T06:27:46.662Z,5.30
2023-05-16T06:30:13.568Z,5.30
2023-05-16T06:32:41.044Z,4.80
2023-05-16T06:35:09.089Z,4.40
2023-05-16T06:37:36.398Z,4.10
2023-05-16T06:40:04.092Z,4.40
2023-05-16T06:42:31.803Z,4.40
2023-05-16T06:44:59.106Z,4.80
2023-05-16T06:47:26.376Z,3.90
2023-05-16T06:49:53.456Z,4.10
2023-05-16T06:52:21.421Z,4.30
2023-05-16T06:54:48.379Z,4.60
2023-05-16T06:57:15.942Z,4.60
2023-05-16T06:59:42.962Z,4.40
2023-05-16T07:02:10.871Z,4.30
2023-05-16T07:04:37.748Z,4.60
2023-05-16T07:07:07.077Z,5.60
2023-05-16T07:09:34.744Z,5.10
2023-05-16T07:12:02.726Z,4.40
2023-05-16T07:14:31.553Z,4.40
2023-05-16T07:16:58.328Z,4.80
2023-05-16T07:19:25.249Z,3.90
2023-05-16T07:21:52.094Z,4.00
2023-05-16T07:24:19.221Z,4.60
2023-05-16T07:26:46.853Z,4.20
2023-05-16T07:29:13.734Z,4.20
2023-05-16T07:31:40.953Z,4.70
2023-05-16T07:34:09.830Z,4.80
2023-05-16T07:36:36.741Z,5.90
2023-05-16T07:39:03.664Z,4.60
2023-05-16T07:41:30.873Z,9.00
2023-05-16T07:43:58.008Z,5.20
2023-05-16T07:46:25.647Z,3.90
2023-05-16T07:48:52.660Z,6.10
2023-05-16T07:51:19.599Z,5.10
2023-05-16T07:53:46.478Z,5.90
2023-05-16T07:56:13.285Z,4.90
2023-05-16T07:58:41.074Z,5.20
2023-05-16T08:01:08.280Z,5.90
2023-05-16T08:03:35.885Z,6.10
2023-05-16T08:06:03.122Z,4.50
2023-05-16T08:08:30.277Z,4.50
2023-05-16T08:10:57.054Z,4.00
2023-05-16T08:13:24.220Z,4.00
2023-05-16T08:15:51.965Z,3.90
2023-05-16T08:18:22.045Z,5.10
2023-05-16T08:20:49.337Z,5.20
2023-05-16T08:23:16.287Z,4.20
2023-05-16T08:25:43.183Z,5.70
2023-05-16T08:28:10.114Z,4.50
2023-05-16T08:30:36.886Z,3.70
2023-05-16T08:33:05.844Z,6.20
2023-05-16T08:35:34.795Z,4.70
2023-05-16T08:38:02.785Z,4.80
2023-05-16T08:40:30.883Z,5.00
2023-05-16T08:42:57.757Z,5.10
2023-05-16T08:45:24.592Z,4.60
2023-05-16T08:47:52.527Z,4.30
2023-05-16T08:50:19.686Z,5.60
2023-05-16T08:52:47.241Z,6.30
2023-05-16T08:55:14.128Z,5.30
2023-05-16T08:57:41.064Z,5.90
2023-05-16T09:00:11.314Z,5.90
2023-05-16T09:02:40.153Z,4.20
2023-05-16T09:05:09.297Z,4.30
2023-05-16T09:07:36.740Z,4.10
2023-05-16T09:10:06.275Z,4.10
2023-05-16T09:12:34.100Z,4.40
2023-05-16T09:15:03.275Z,4.20
2023-05-16T09:17:39.889Z,4.40
2023-05-16T09:20:11.300Z,4.90
2023-05-16T09:22:38.758Z,4.30
2023-05-16T09:25:08.624Z,4.50
2023-05-16T09:27:40.371Z,4.50
2023-05-16T09:30:08.376Z,4.30
2023-05-16T09:35:03.268Z,3.70
2023-05-16T09:37:30.712Z,4.50
2023-05-16T09:39:57.640Z,4.40
2023-05-16T09:42:25.125Z,4.30
2023-05-16T09:44:53.757Z,5.00
2023-05-16T09:47:21.381Z,5.50
2023-05-16T09:49:52.300Z,4.30
2023-05-16T09:52:19.074Z,5.10
2023-05-16T09:54:48.806Z,4.70
2023-05-16T09:57:19.891Z,4.10
2023-05-16T09:59:46.980Z,4.50
2023-05-16T10:02:14.076Z,4.00
2023-05-16T10:04:41.833Z,4.30
2023-05-16T10:07:09.106Z,4.70
2023-05-16T10:09:36.625Z,3.80
2023-05-16T10:12:06.037Z,4.50
2023-05-16T10:14:34.304Z,4.20
2023-05-16T10:17:01.271Z,3.70
2023-05-16T10:19:30.160Z,4.50
2023-05-16T10:24:39.738Z,5.30
2023-05-16T10:27:06.470Z,4.30
2023-05-16T10:29:43.010Z,4.20
2023-05-16T10:32:20.717Z,5.20
2023-05-16T10:34:47.764Z,4.50
2023-05-16T10:37:14.562Z,5.20
2023-05-16T10:39:42.257Z,4.10
2023-05-16T10:42:09.874Z,4.60
2023-05-16T10:44:38.327Z,5.80
2023-05-16T10:49:32.159Z,4.50
2023-05-16T10:52:11.531Z,4.30
2023-05-16T10:54:39.857Z,4.70
2023-05-16T10:57:11.478Z,4.70
2023-05-16T10:59:42.968Z,5.10
2023-05-16T11:02:33.216Z,5.50
2023-05-16T11:05:01.417Z,4.80
2023-05-16T11:07:33.760Z,3.90
2023-05-16T11:10:10.651Z,4.40
2023-05-16T11:12:38.626Z,4.60
2023-05-16T11:15:28.349Z,3.90
2023-05-16T11:18:09.550Z,4.20
2023-05-16T11:20:38.071Z,4.60
2023-05-16T11:23:17.111Z,4.40
2023-05-16T11:25:58.037Z,3.50
2023-05-16T11:28:26.476Z,3.90
2023-05-16T11:30:56.902Z,4.20
2023-05-16T11:33:24.121Z,4.30
2023-05-16T11:36:22.198Z,4.80
2023-05-16T11:38:49.254Z,3.60
2023-05-16T11:41:17.190Z,3.10
2023-05-16T11:43:44.714Z,3.90
2023-05-16T11:46:15.629Z,4.40
2023-05-16T11:48:43.173Z,4.00
2023-05-16T11:51:10.290Z,5.30
2023-05-16T11:53:37.658Z,3.90
2023-05-16T11:56:06.669Z,4.20
2023-05-16T11:58:33.999Z,4.40
2023-05-16T12:01:03.818Z,3.90
2023-05-16T12:03:33.165Z,4.10
2023-05-16T12:06:00.341Z,5.00
2023-05-16T12:08:27.163Z,4.70
2023-05-16T12:10:54.008Z,4.40
2023-05-16T12:13:23.104Z,4.50
2023-05-16T12:15:50.863Z,4.60
2023-05-16T12:18:17.796Z,3.40
2023-05-16T12:21:14.026Z,4.10
2023-05-16T12:23:43.601Z,4.30
2023-05-16T12:26:10.396Z,4.60
2023-05-16T12:28:42.645Z,4.10
2023-05-16T12:31:30.241Z,3.90
2023-05-16T12:33:58.422Z,3.90
2023-05-16T12:36:25.833Z,4.70
2023-05-16T12:38:53.141Z,5.00
2023-05-16T12:41:24.524Z,4.50
2023-05-16T12:43:51.345Z,4.90
2023-05-16T12:46:19.192Z,4.20
2023-05-16T12:48:47.539Z,5.00
2023-05-16T12:51:17.242Z,4.70
2023-05-16T12:54:01.258Z,4.70
2023-05-16T12:56:39.517Z,4.80
2023-05-16T12:59:07.150Z,4.20
2023-05-16T13:01:35.547Z,3.90
2023-05-16T13:04:02.727Z,3.60
2023-05-16T13:09:16.100Z,4.40
2023-05-16T13:11:43.811Z,5.40
2023-05-16T13:14:12.500Z,4.40
2023-05-16T13:16:41.473Z,4.90
2023-05-16T13:19:10.381Z,6.40
2023-05-16T13:21:46.753Z,4.30
2023-05-16T13:24:56.954Z,4.30
2023-05-16T13:27:23.660Z,4.80
2023-05-16T13:29:50.680Z,4.70
2023-05-16T13:32:18.418Z,4.30
2023-05-16T13:34:45.235Z,4.80
2023-05-16T13:37:12.085Z,4.90
2023-05-16T13:39:39.040Z,4.60
2023-05-16T13:42:05.845Z,6.30
2023-05-16T13:44:32.712Z,4.20
2023-05-16T13:46:59.495Z,3.80
2023-05-16T13:49:26.287Z,5.10
2023-05-16T13:51:52.995Z,4.40
2023-05-16T13:54:21.258Z,5.20
2023-05-16T13:56:48.201Z,4.60
2023-05-16T13:59:20.143Z,5.30
2023-05-16T14:01:54.502Z,5.00
2023-05-16T14:04:22.171Z,5.10
2023-05-16T14:06:49.610Z,5.10
2023-05-16T14:09:16.446Z,5.00
2023-05-16T14:11:43.357Z,5.40
2023-05-16T14:14:11.137Z,5.30
2023-05-16T14:16:38.098Z,5.50
2023-05-16T14:19:06.977Z,9.50
2023-05-16T14:21:34.612Z,5.90
2023-05-16T14:24:01.503Z,7.30
2023-05-16T14:26:28.731Z,5.20
2023-05-16T14:28:56.380Z,4.10
2023-05-16T14:31:23.164Z,6.10
2023-05-16T14:33:50.816Z,5.60
2023-05-16T14:36:17.629Z,6.40
2023-05-16T14:38:44.454Z,5.30
2023-05-16T14:41:11.297Z,5.20
2023-05-16T14:43:38.476Z,5.40
2023-05-16T14:46:05.368Z,7.50
2023-05-16T14:48:33.092Z,5.30
2023-05-16T14:50:59.914Z,5.20
2023-05-16T14:53:26.852Z,4.10
2023-05-16T14:58:21.660Z,4.40
2023-05-16T15:00:48.727Z,5.30
2023-05-16T15:03:17.367Z,4.60
2023-05-16T15:08:11.605Z,5.30
2023-05-16T15:10:39.040Z,6.10
2023-05-16T15:13:06.169Z,12.80
2023-05-16T15:15:33.943Z,7.00
2023-05-16T15:18:01.123Z,5.30
2023-05-16T15:20:28.104Z,5.70
2023-05-16T15:22:55.615Z,7.20
2023-05-16T15:25:22.451Z,5.20
2023-05-16T15:27:49.421Z,5.70
2023-05-16T15:30:16.595Z,5.20
2023-05-16T15:32:44.414Z,5.80
2023-05-16T15:35:11.467Z,7.00
2023-05-16T15:37:38.419Z,6.30
2023-05-16T15:40:06.271Z,5.40
2023-05-16T15:45:00.711Z,6.60
2023-05-16T15:47:27.644Z,7.50
2023-05-16T15:49:54.748Z,6.00
2023-05-16T15:52:22.997Z,5.60
2023-05-16T15:54:50.077Z,5.20
2023-05-16T15:57:16.872Z,5.90
2023-05-16T15:59:44.095Z,5.70
2023-05-16T16:02:13.489Z,5.30
2023-05-16T16:04:40.294Z,5.70
2023-05-16T16:07:07.091Z,6.50
2023-05-16T16:09:34.424Z,5.90
2023-05-16T16:12:01.986Z,6.20
2023-05-16T16:14:30.748Z,4.70
2023-05-16T16:16:57.580Z,5.40
2023-05-16T16:19:25.271Z,4.60
2023-05-16T16:21:52.208Z,6.50
2023-05-16T16:24:19.791Z,5.90
2023-05-16T16:26:48.090Z,6.40
2023-05-16T16:29:15.099Z,9.90
2023-05-16T16:31:41.984Z,7.20
2023-05-16T16:34:09.508Z,6.90
2023-05-16T16:36:36.340Z,11.40
2023-05-16T16:39:05.225Z,9.30
2023-05-16T16:41:33.750Z,7.50
2023-05-16T16:44:01.075Z,7.60
2023-05-16T16:46:28.721Z,8.00
2023-05-16T16:48:56.084Z,8.20
2023-05-16T16:51:22.913Z,7.50
2023-05-16T16:53:49.862Z,7.80
2023-05-16T16:56:16.770Z,8.20
2023-05-16T16:58:43.787Z,8.50
2023-05-16T17:01:12.167Z,8.50
2023-05-16T17:03:40.218Z,8.00
2023-05-16T17:06:07.447Z,8.70
2023-05-16T17:08:35.014Z,7.70
2023-05-16T17:11:04.702Z,7.00
2023-05-16T17:13:33.740Z,7.30
2023-05-16T17:16:00.970Z,6.90
2023-05-16T17:18:28.173Z,7.20
2023-05-16T17:20:55.576Z,6.80
2023-05-16T17:23:22.618Z,8.20
2023-05-16T17:25:49.672Z,8.10
2023-05-16T17:28:16.764Z,8.40
2023-05-16T17:30:43.663Z,7.00
2023-05-16T17:33:11.730Z,6.50
2023-05-16T17:35:40.205Z,6.50
2023-05-16T17:40:35.121Z,9.30
2023-05-16T17:43:02.591Z,9.90
2023-05-16T17:45:30.654Z,12.70
2023-05-16T17:47:57.615Z,9.60
2023-05-16T17:50:28.801Z,8.40
2023-05-16T17:52:55.881Z,7.80
2023-05-16T17:55:22.932Z,7.10
2023-05-16T17:57:50.061Z,7.50
2023-05-16T18:00:19.243Z,6.90
2023-05-16T18:02:46.541Z,7.60
2023-05-16T18:05:15.915Z,8.20
2023-05-16T18:07:43.387Z,8.50
2023-05-16T18:10:10.900Z,8.90
2023-05-16T18:12:43.413Z,8.60
2023-05-16T18:15:14.269Z,8.50
2023-05-16T18:17:41.937Z,8.70
2023-05-16T18:20:10.178Z,8.60
2023-05-16T18:25:09.101Z,7.60
2023-05-16T18:27:36.804Z,9.10
2023-05-16T18:30:05.180Z,8.30
2023-05-16T18:32:32.750Z,8.70
2023-05-16T18:35:02.790Z,7.60
2023-05-16T18:37:30.531Z,7.40
2023-05-16T18:39:57.537Z,7.60
2023-05-16T18:42:25.317Z,8.00
2023-05-16T18:44:52.212Z,9.70
2023-05-16T18:47:20.260Z,9.70
2023-05-16T18:49:47.164Z,8.70
2023-05-16T18:52:14.238Z,10.60
2023-05-16T18:54:41.242Z,11.80
2023-05-16T18:57:08.321Z,12.30
2023-05-16T18:59:35.396Z,14.70
2023-05-16T19:02:04.010Z,13.40
2023-05-16T19:06:58.550Z,9.50
2023-05-16T19:09:25.478Z,6.80
2023-05-16T19:11:52.354Z,6.10
2023-05-16T19:14:19.944Z,6.40
2023-05-16T19:16:46.789Z,6.70
2023-05-16T19:19:14.411Z,7.30
2023-05-16T19:21:42.029Z,10.30
2023-05-16T19:24:09.021Z,15.00
2023-05-16T19:26:36.430Z,12.30
2023-05-16T19:29:03.347Z,11.80
2023-05-16T19:31:30.534Z,8.70
2023-05-16T19:33:57.626Z,9.10
2023-05-16T19:36:24.618Z,12.80
2023-05-16T19:38:51.566Z,11.10
2023-05-16T19:41:18.492Z,11.40
2023-05-16T19:43:45.553Z,15.00
2023-05-16T19:46:12.652Z,14.00
2023-05-16T19:48:39.678Z,10.70
2023-05-16T19:51:08.845Z,9.10
2023-05-16T19:53:35.899Z,8.50
2023-05-16T19:56:04.169Z,8.80
2023-05-16T20:00:58.616Z,7.40
2023-05-16T20:03:26.096Z,8.30
2023-05-16T20:05:53.093Z,7.10
2023-05-16T20:08:20.044Z,6.30
2023-05-16T20:10:47.260Z,6.80
2023-05-16T20:13:17.877Z,6.50
2023-05-16T20:15:46.272Z,6.40
2023-05-16T20:18:17.941Z,6.80
2023-05-16T20:20:44.976Z,7.10
2023-05-16T20:23:11.955Z,7.70
2023-05-16T20:25:39.169Z,7.10
2023-05-16T20:28:06.339Z,7.80
2023-05-16T20:30:33.198Z,10.20
2023-05-16T20:33:00.193Z,7.20
2023-05-16T20:35:27.974Z,8.70
2023-05-16T20:37:55.324Z,6.90
2023-05-16T20:40:22.557Z,7.20
2023-05-16T20:42:49.337Z,8.00
2023-05-16T20:45:16.360Z,8.00
2023-05-16T20:47:43.607Z,8.70
2023-05-16T20:50:10.637Z,9.50
2023-05-16T20:52:37.914Z,15.50
2023-05-16T20:55:05.478Z,10.00
2023-05-16T20:57:32.425Z,8.30
2023-05-16T20:59:59.461Z,6.40
2023-05-16T21:02:26.338Z,7.00
2023-05-16T21:04:53.527Z,7.20
2023-05-16T21:07:21.097Z,7.30
2023-05-16T21:09:47.887Z,6.10
2023-05-16T21:12:14.913Z,6.30
2023-05-16T21:14:43.596Z,6.40
2023-05-16T21:17:10.931Z,7.40
2023-05-16T21:19:38.399Z,5.90
2023-05-16T21:22:05.564Z,7.00
2023-05-16T21:24:35.099Z,7.40
2023-05-16T21:27:20.789Z,6.80
2023-05-16T21:29:47.550Z,6.80
2023-05-16T21:32:16.172Z,7.20
2023-05-16T21:34:43.316Z,6.40
2023-05-16T21:37:13.237Z,7.80
2023-05-16T21:39:40.097Z,7.00
2023-05-16T21:42:07.420Z,6.60
2023-05-16T21:44:34.349Z,8.70
2023-05-16T21:47:01.311Z,8.40
2023-05-16T21:49:28.774Z,6.80
2023-05-16T21:51:55.715Z,7.20
2023-05-16T21:54:22.544Z,7.40
2023-05-16T21:56:49.503Z,8.80
2023-05-16T21:59:16.394Z,8.60
2023-05-16T22:01:43.586Z,9.30
2023-05-16T22:04:11.152Z,8.40
2023-05-16T22:06:38.511Z,8.10
2023-05-16T22:09:05.557Z,8.50
2023-05-16T22:11:32.415Z,8.70
2023-05-16T22:13:59.924Z,7.90
2023-05-16T22:16:26.783Z,9.50
2023-05-16T22:18:53.844Z,9.90
2023-05-16T22:21:21.097Z,9.40
2023-05-16T22:23:48.759Z,8.70
2023-05-16T22:26:16.011Z,8.30
2023-05-16T22:28:43.086Z,7.40
2023-05-16T22:31:10.445Z,7.40
2023-05-16T22:33:37.610Z,7.60
2023-05-16T22:36:05.136Z,7.60
2023-05-16T22:38:32.367Z,7.80
2023-05-16T22:40:59.302Z,8.50
2023-05-16T22:43:26.960Z,8.00
2023-05-16T22:45:53.816Z,10.10
2023-05-16T22:48:20.982Z,7.70
2023-05-16T22:50:47.859Z,9.20
2023-05-16T22:53:14.832Z,8.50
2023-05-16T22:55:41.695Z,7.80
2023-05-16T22:58:08.576Z,8.30
2023-05-16T23:00:36.176Z,7.60
2023-05-16T23:03:03.168Z,7.40
2023-05-16T23:05:31.770Z,7.70
2023-05-16T23:07:58.760Z,7.90
2023-05-16T23:10:25.725Z,9.70
2023-05-16T23:12:53.050Z,8.80
2023-05-16T23:15:20.113Z,10.20
2023-05-16T23:17:47.038Z,8.70
2023-05-16T23:20:14.011Z,9.70
2023-05-16T23:22:41.879Z,8.90
2023-05-16T23:25:09.259Z,9.00
2023-05-16T23:27:36.673Z,9.10
2023-05-16T23:30:04.645Z,8.20
2023-05-16T23:34:59.362Z,8.80
2023-05-16T23:37:26.273Z,9.70
2023-05-16T23:39:53.157Z,9.30
2023-05-16T23:42:19.966Z,9.30
2023-05-16T23:44:46.822Z,8.40
2023-05-16T23:47:13.668Z,7.10
2023-05-16T23:49:40.383Z,7.30
2023-05-16T23:52:07.688Z,7.20
2023-05-16T23:54:34.812Z,7.40
2023-05-16T23:57:01.879Z,6.90
2023-05-16T23:59:29.944Z,7.30
